Time;durP1;ratioP1;P1;durP2;ratioP2;P2;SDS_P1;SDS_P2;PMS_P1;PMS_P2;Temp;Humidity;BMP_temperature;BMP_pressure;BME280_temperature;BME280_humidity;BME280_pressure;Samples;Min_cycle;Max_cycle;Signal;HPM_P1;HPM_P2
2022/09/26 09:44:02;;;;;;;23.00;20.60;;;;;;;17.70;100.00;97836.48;2211467;80;936354;-82
2022/09/26 09:47:03;;;;;;;23.22;20.80;;;;;;;17.66;100.00;97836.16;2174224;81;21080;-82
2022/09/26 09:50:04;;;;;;;21.23;19.05;;;;;;;17.73;100.00;97835.46;2184836;81;20976;-83
2022/09/26 09:53:05;;;;;;;24.85;18.85;;;;;;;17.89;100.00;97831.16;2185966;81;21048;-83
2022/09/26 09:56:05;;;;;;;20.75;18.57;;;;;;;17.95;100.00;97824.88;2192022;81;20988;-83
2022/09/26 09:59:06;;;;;;;19.95;17.87;;;;;;;18.03;100.00;97829.73;2147537;81;21012;-83
2022/09/26 10:02:07;;;;;;;20.15;18.15;;;;;;;18.11;100.00;97825.84;2189698;81;21491;-83
2022/09/26 10:05:08;;;;;;;16.97;15.38;;;;;;;18.19;100.00;97823.52;2196981;81;21004;-81
2022/09/26 10:08:09;;;;;;;12.25;11.05;;;;;;;18.24;100.00;97825.97;2157094;81;21036;-82
2022/09/26 10:11:11;;;;;;;9.90;8.88;;;;;;;18.47;100.00;97822.49;2176870;81;21037;-84
2022/09/26 10:14:12;;;;;;;9.10;8.05;;;;;;;18.65;100.00;97821.84;2195703;81;21519;-85
2022/09/26 10:17:14;;;;;;;9.33;8.43;;;;;;;18.75;100.00;97828.59;2171894;81;21084;-85
2022/09/26 10:20:16;;;;;;;9.15;8.35;;;;;;;18.83;100.00;97821.46;2194089;81;21535;-84
2022/09/26 10:23:17;;;;;;;7.87;7.17;;;;;;;18.93;100.00;97822.09;2188678;81;21610;-87
2022/09/26 10:26:18;;;;;;;8.85;7.97;;;;;;;19.02;100.00;97823.22;2180054;81;20980;-85
2022/09/26 10:29:18;;;;;;;10.95;9.85;;;;;;;19.04;100.00;97817.92;2172291;81;21013;-84
2022/09/26 10:32:19;;;;;;;13.40;12.03;;;;;;;18.95;100.00;97821.30;2184831;81;21546;-85
2022/09/26 10:35:20;;;;;;;11.35;9.65;;;;;;;18.87;100.00;97813.28;2192357;81;21102;-86
2022/09/26 10:38:21;;;;;;;11.45;10.28;;;;;;;18.90;100.00;97807.99;2189257;81;21012;-82
2022/09/26 10:41:21;;;;;;;11.05;9.93;;;;;;;18.90;100.00;97806.14;2154217;83;21016;-81
2022/09/26 10:44:22;;;;;;;9.88;8.90;;;;;;;18.91;100.00;97805.08;2184954;81;21031;-85
2022/09/26 10:47:23;;;;;;;8.70;7.90;;;;;;;18.97;100.00;97797.97;2163640;81;21122;-85
2022/09/26 10:50:26;;;;;;;10.85;9.88;;;;;;;19.00;100.00;97792.94;2179340;81;21009;-86
2022/09/26 10:53:26;;;;;;;12.20;10.95;;;;;;;19.12;100.00;97790.64;2191312;81;21051;-84
2022/09/26 10:56:27;;;;;;;12.10;10.93;;;;;;;19.23;100.00;97790.44;2152687;82;21024;-85
2022/09/26 10:59:30;;;;;;;14.23;12.82;;;;;;;19.26;100.00;97784.60;2189197;81;21013;-82
2022/09/26 11:02:30;;;;;;;13.15;11.95;;;;;;;19.33;100.00;97785.17;2151889;83;21016;-84
2022/09/26 11:08:52;;;;;;;10.53;9.53;;;;;;;19.53;100.00;97777.83;2122176;81;21079;-85
2022/09/26 11:11:54;;;;;;;9.88;9.10;;;;;;;19.62;100.00;97774.70;2223105;80;21039;-82
2022/09/26 11:14:56;;;;;;;10.23;9.03;;;;;;;19.59;100.00;97767.53;2218641;80;21088;-85
2022/09/26 11:17:57;;;;;;;9.90;9.10;;;;;;;19.67;100.00;97770.22;2218923;80;21164;-85
2022/09/26 11:20:58;;;;;;;9.13;8.40;;;;;;;19.73;100.00;97765.70;2208746;80;21525;-85
2022/09/26 11:24:01;;;;;;;11.63;10.48;;;;;;;19.76;100.00;97769.98;2222406;80;21060;-85
2022/09/26 11:27:03;;;;;;;12.55;11.35;;;;;;;19.76;100.00;97767.86;2216845;80;21144;-85
2022/09/26 11:30:07;;;;;;;12.60;11.40;;;;;;;19.80;100.00;97766.27;2214513;80;21065;-86
2022/09/26 11:33:07;;;;;;;12.03;10.82;;;;;;;19.83;100.00;97764.41;2219482;80;21066;-84
2022/09/26 11:36:09;;;;;;;13.90;11.53;;;;;;;19.79;100.00;97766.00;2184308;81;20950;-87
2022/09/26 11:39:10;;;;;;;13.15;11.95;;;;;;;19.67;100.00;97773.41;2179994;81;22208;-85
2022/09/26 11:42:13;;;;;;;13.70;12.25;;;;;;;19.51;100.00;97770.66;2189438;81;21052;-81
2022/09/26 11:45:14;;;;;;;12.37;11.25;;;;;;;19.45;100.00;97769.03;2185207;81;21078;-86
2022/09/26 11:48:14;;;;;;;12.30;11.12;;;;;;;19.57;100.00;97767.53;2189130;81;21021;-87
2022/09/26 11:51:15;;;;;;;12.63;11.43;;;;;;;19.64;100.00;97755.33;2177718;81;21001;-83
2022/09/26 11:54:16;;;;;;;13.25;12.07;;;;;;;19.70;100.00;97757.74;2180365;81;21507;-85
2022/09/26 11:57:17;;;;;;;12.65;11.45;;;;;;;19.69;100.00;97756.68;2150745;81;21052;-85
2022/09/26 12:00:26;;;;;;;11.08;9.98;;;;;;;19.69;100.00;97752.70;2187523;81;20989;-86
2022/09/26 12:03:28;;;;;;;10.78;9.68;;;;;;;19.72;100.00;97750.84;2169754;81;21136;-85
2022/09/26 12:06:32;;;;;;;12.45;11.25;;;;;;;19.71;100.00;97753.23;2195689;81;21055;-86
2022/09/26 12:09:31;;;;;;;10.58;9.50;;;;;;;19.67;100.00;97752.17;2140841;82;21060;-87
2022/09/26 12:12:33;;;;;;;10.90;10.00;;;;;;;19.67;100.00;97749.51;2187603;81;20977;-86
2022/09/26 12:15:33;;;;;;;11.43;10.15;;;;;;;19.66;100.00;97746.56;2193259;81;21544;-85
2022/09/26 12:18:34;;;;;;;11.48;10.20;;;;;;;19.66;100.00;97751.87;2151988;81;21033;-87
2022/09/26 12:21:35;;;;;;;10.38;8.98;;;;;;;19.60;100.00;97752.41;2189371;81;21403;-87
2022/09/26 12:24:36;;;;;;;9.70;8.80;;;;;;;19.54;100.00;97754.73;2194845;81;21024;-85
2022/09/26 12:27:37;;;;;;;10.82;9.85;;;;;;;19.47;100.00;97749.66;2171720;81;21031;-86
2022/09/26 12:30:37;;;;;;;15.05;11.30;;;;;;;19.45;100.00;97742.48;2174543;81;21017;-84
2022/09/26 12:33:38;;;;;;;12.00;10.80;;;;;;;19.41;100.00;97740.62;2146281;81;21098;-84
2022/09/26 12:36:46;;;;;;;12.33;11.33;;;;;;;19.42;100.00;97739.56;2173712;81;21532;-86
2022/09/26 12:39:41;;;;;;;11.20;10.13;;;;;;;19.42;100.00;97739.03;2173228;81;21013;-85
2022/09/26 12:42:42;;;;;;;11.93;10.65;;;;;;;19.39;100.00;97734.25;2173396;81;21041;-86
2022/09/26 12:45:43;;;;;;;14.10;11.38;;;;;;;19.35;100.00;97737.14;2154309;82;21562;-85
2022/09/26 12:48:44;;;;;;;12.05;11.05;;;;;;;19.30;100.00;97726.52;2189150;81;21524;-85
2022/09/26 12:51:46;;;;;;;12.18;11.18;;;;;;;19.21;100.00;97730.20;2182080;81;21036;-83
2022/09/26 12:54:47;;;;;;;13.10;11.80;;;;;;;19.13;100.00;97724.05;2173870;81;21068;-83
2022/09/26 12:57:49;;;;;;;11.88;10.15;;;;;;;19.03;100.00;97730.11;2188939;81;21049;-86
2022/09/26 13:00:50;;;;;;;14.20;11.40;;;;;;;18.94;100.00;97726.88;2184565;81;21005;-85
2022/09/26 13:03:51;;;;;;;15.48;13.93;;;;;;;18.90;100.00;97722.59;2177802;81;21060;-84
2022/09/26 13:06:54;;;;;;;14.38;12.88;;;;;;;18.84;100.00;97722.84;2189292;81;21436;-83
2022/09/26 13:09:54;;;;;;;13.48;12.18;;;;;;;18.66;100.00;97722.73;2179287;81;21099;-84
2022/09/26 13:12:55;;;;;;;13.03;11.75;;;;;;;18.52;100.00;97718.88;2184545;81;21059;-83
2022/09/26 13:15:56;;;;;;;13.43;12.20;;;;;;;18.39;100.00;97721.45;2145664;81;21541;-85
2022/09/26 13:18:57;;;;;;;14.47;12.80;;;;;;;18.27;100.00;97716.30;2196455;81;21055;-83
2022/09/26 13:22:02;;;;;;;13.88;12.40;;;;;;;18.26;100.00;97713.91;2152412;82;21020;-84
2022/09/26 13:25:04;;;;;;;13.03;11.33;;;;;;;18.34;100.00;97712.12;2176475;81;21535;-83
2022/09/26 13:28:07;;;;;;;13.85;12.23;;;;;;;18.33;100.00;97708.67;2174483;81;21523;-84
2022/09/26 13:31:08;;;;;;;14.18;12.75;;;;;;;18.34;100.00;97712.91;2129806;82;21167;-83
2022/09/26 13:34:11;;;;;;;13.28;11.85;;;;;;;18.37;100.00;97711.60;2175900;81;21089;-84
2022/09/26 13:37:12;;;;;;;12.35;11.05;;;;;;;18.33;100.00;97708.67;2190365;81;21009;-83
2022/09/26 13:40:13;;;;;;;11.73;10.63;;;;;;;18.24;100.00;97708.86;2140705;82;21072;-85
2022/09/26 13:43:14;;;;;;;12.25;11.15;;;;;;;18.11;100.00;97703.47;2143052;81;21128;-87
2022/09/26 13:46:15;;;;;;;12.07;10.85;;;;;;;17.96;100.00;97709.16;2209550;80;21001;-86
2022/09/26 13:49:16;;;;;;;12.47;10.93;;;;;;;17.92;100.00;97711.48;2168920;81;21060;-86
2022/09/26 13:52:17;;;;;;;12.33;11.03;;;;;;;17.90;100.00;97703.80;2190151;81;20985;-84
2022/09/26 13:55:18;;;;;;;12.13;11.03;;;;;;;17.90;100.00;97695.85;2183726;81;21005;-86
2022/09/26 13:58:20;;;;;;;11.97;10.78;;;;;;;17.94;100.00;97694.84;2184384;81;21033;-85
2022/09/26 14:01:22;;;;;;;12.10;11.00;;;;;;;18.02;100.00;97694.92;2136080;82;21542;-84
2022/09/26 14:04:22;;;;;;;12.88;11.57;;;;;;;18.12;100.00;97688.38;2195810;81;21100;-86
2022/09/26 14:10:44;;;;;;;13.18;11.97;;;;;;;18.10;100.00;97685.16;2136346;81;21001;-82
2022/09/26 14:13:45;;;;;;;11.53;10.48;;;;;;;18.00;100.00;97691.17;2189282;81;21060;-85
2022/09/26 14:16:46;;;;;;;13.13;11.83;;;;;;;17.88;100.00;97682.07;2184827;81;21025;-83
2022/09/26 14:19:48;;;;;;;14.10;12.73;;;;;;;17.80;100.00;97680.40;2215037;80;21039;-82
2022/09/26 14:22:49;;;;;;;16.65;13.20;;;;;;;17.68;100.00;97675.77;2176685;81;21662;-83
2022/09/26 14:25:50;;;;;;;14.78;11.90;;;;;;;17.58;100.00;97679.91;2187195;81;21004;-82
2022/09/26 14:28:50;;;;;;;13.70;12.05;;;;;;;17.51;100.00;97675.33;2174360;81;21064;-88
2022/09/26 14:31:51;;;;;;;12.73;11.45;;;;;;;17.46;100.00;97677.91;2174424;81;21517;-87
2022/09/26 14:34:56;;;;;;;13.48;12.10;;;;;;;17.40;100.00;97680.24;2174982;81;21086;-87
2022/09/26 14:37:55;;;;;;;14.53;12.90;;;;;;;17.35;100.00;97680.97;2149310;81;21037;-87
2022/09/26 14:40:55;;;;;;;15.15;13.72;;;;;;;17.23;100.00;97678.98;2188672;81;20965;-86
2022/09/26 14:43:56;;;;;;;13.32;11.80;;;;;;;17.15;100.00;97678.09;2153332;81;21608;-86
2022/09/26 14:46:57;;;;;;;14.58;13.03;;;;;;;17.08;100.00;97671.39;2184684;81;21040;-85
2022/09/26 14:49:57;;;;;;;15.40;13.85;;;;;;;16.94;100.00;97665.69;2186443;81;20981;-87
2022/09/26 14:52:58;;;;;;;15.55;13.03;;;;;;;16.85;100.00;97673.77;2147802;81;21017;-88
2022/09/26 14:55:59;;;;;;;15.45;13.85;;;;;;;16.73;100.00;97665.42;2190168;81;21151;-86
2022/09/26 14:59:00;;;;;;;15.30;13.20;;;;;;;16.65;100.00;97664.49;2185049;81;20989;-87
2022/09/26 15:02:00;;;;;;;15.95;13.15;;;;;;;16.59;100.00;97670.73;2136515;82;21046;-86
2022/09/26 15:05:01;;;;;;;14.83;13.43;;;;;;;16.57;100.00;97666.75;2227590;80;21508;-86
2022/09/26 15:08:02;;;;;;;15.65;14.07;;;;;;;16.49;100.00;97670.08;2189520;81;20934;-85
2022/09/26 15:11:03;;;;;;;17.70;14.47;;;;;;;16.40;100.00;97674.17;2195906;81;21056;-84
2022/09/26 15:14:04;;;;;;;16.85;15.05;;;;;;;16.27;100.00;97675.80;2151543;81;21001;-86
2022/09/26 15:17:05;;;;;;;17.17;15.45;;;;;;;16.14;100.00;97674.30;2189208;81;21041;-86
2022/09/26 15:20:05;;;;;;;16.32;14.73;;;;;;;16.04;100.00;97670.17;2175825;81;21021;-87
2022/09/26 15:23:06;;;;;;;19.20;13.95;;;;;;;15.92;100.00;97667.61;2191200;81;20977;-85
2022/09/26 15:26:07;;;;;;;15.78;14.05;;;;;;;15.79;100.00;97672.38;2153267;81;21032;-84
2022/09/26 15:29:08;;;;;;;16.75;15.03;;;;;;;15.70;100.00;97666.69;2183746;81;21001;-85
2022/09/26 15:32:09;;;;;;;16.87;14.30;;;;;;;15.63;100.00;97668.17;2175044;81;21674;-83
2022/09/26 15:35:10;;;;;;;20.77;17.55;;;;;;;15.57;100.00;97677.52;2188595;81;22183;-84
2022/09/26 15:38:11;;;;;;;18.62;16.82;;;;;;;15.52;100.00;97670.81;2168527;81;21052;-86
2022/09/26 15:41:12;;;;;;;18.37;15.83;;;;;;;15.52;100.00;97672.94;2173693;81;21022;-88
2022/09/26 15:44:13;;;;;;;18.62;16.42;;;;;;;15.48;100.00;97667.06;2163275;81;21542;-86
2022/09/26 15:47:14;;;;;;;21.90;16.93;;;;;;;15.41;100.00;97675.63;2191840;81;21596;-86
2022/09/26 15:50:15;;;;;;;19.27;15.32;;;;;;;15.36;100.00;97677.63;2171275;81;21016;-85
2022/09/26 15:53:19;;;;;;;19.02;16.55;;;;;;;15.32;100.00;97670.72;2184482;81;21551;-84
2022/09/26 15:56:20;;;;;;;20.10;17.90;;;;;;;15.29;100.00;97669.88;2174495;81;21075;-85
2022/09/26 15:59:21;;;;;;;20.95;18.75;;;;;;;15.29;100.00;97667.77;2171287;81;21072;-84
2022/09/26 16:02:21;;;;;;;28.67;20.62;;;;;;;15.27;100.00;97673.28;2170581;81;21017;-82
2022/09/26 16:05:22;;;;;;;28.90;19.82;;;;;;;15.25;100.00;97664.78;2167104;81;21455;-85
2022/09/26 16:08:23;;;;;;;28.90;22.00;;;;;;;15.23;100.00;97668.17;2171471;81;21016;-84
2022/09/26 16:11:24;;;;;;;27.52;22.32;;;;;;;15.20;100.00;97663.90;2170972;81;20950;-84
2022/09/26 16:14:25;;;;;;;23.52;21.00;;;;;;;15.13;100.00;97662.70;2170918;82;21074;-85
2022/09/26 16:17:26;;;;;;;26.12;21.52;;;;;;;15.07;100.00;97660.48;2168279;81;21539;-84
2022/09/26 16:20:27;;;;;;;24.20;21.33;;;;;;;15.00;100.00;97657.20;2152055;82;21066;-85
2022/09/26 16:23:28;;;;;;;26.40;19.55;;;;;;;14.94;100.00;97655.48;2150219;82;21113;-83
2022/09/26 16:26:31;;;;;;;19.73;17.62;;;;;;;14.87;100.00;97650.05;2191545;81;21048;-84
2022/09/26 16:29:33;;;;;;;21.17;17.20;;;;;;;14.77;100.00;97647.48;2185576;81;20957;-83
2022/09/26 16:32:34;;;;;;;21.33;17.92;;;;;;;14.71;100.00;97647.08;2131666;82;21010;-85
2022/09/26 16:35:35;;;;;;;21.42;18.32;;;;;;;14.67;100.00;97647.80;2183754;81;21087;-84
2022/09/26 16:38:36;;;;;;;22.27;18.00;;;;;;;14.65;100.00;97648.55;2171529;81;21005;-86
2022/09/26 16:41:37;;;;;;;24.35;20.37;;;;;;;14.61;100.00;97646.07;2146671;81;21080;-83
2022/09/26 16:44:39;;;;;;;22.52;19.48;;;;;;;14.57;100.00;97646.27;2195785;81;20977;-84
2022/09/26 16:47:44;;;;;;;23.22;20.32;;;;;;;14.50;100.00;97642.42;2149859;82;21071;-84
2022/09/26 16:50:42;;;;;;;26.85;20.45;;;;;;;14.46;100.00;97647.88;2188772;81;22115;-84
2022/09/26 16:53:44;;;;;;;24.47;20.72;;;;;;;14.41;100.00;97645.09;2183760;81;21053;-84
2022/09/26 16:56:45;;;;;;;23.62;19.48;;;;;;;14.36;100.00;97648.42;2187753;81;21661;-86
2022/09/26 16:59:46;;;;;;;24.45;20.52;;;;;;;14.34;100.00;97650.46;2187669;81;21036;-87
2022/09/26 17:02:46;;;;;;;22.62;19.02;;;;;;;14.34;100.00;97655.73;2152564;81;21032;-84
2022/09/26 17:05:47;;;;;;;22.37;18.32;;;;;;;14.34;100.00;97667.58;2176347;81;21001;-84
2022/09/26 17:08:48;;;;;;;17.85;12.70;;;;;;;14.34;100.00;97674.16;2186068;81;20993;-85
2022/09/26 17:11:49;;;;;;;13.83;11.15;;;;;;;14.36;100.00;97680.02;2175912;81;21549;-84
2022/09/26 17:14:50;;;;;;;11.18;9.83;;;;;;;14.36;100.00;97677.39;2178600;81;21033;-87
2022/09/26 17:17:52;;;;;;;9.63;8.73;;;;;;;14.34;100.00;97678.11;2148977;81;21044;-88
2022/09/26 17:20:53;;;;;;;7.97;7.17;;;;;;;14.30;100.00;97677.48;2147537;81;21159;-86
2022/09/26 17:23:53;;;;;;;6.22;5.62;;;;;;;14.26;100.00;97678.95;2183810;81;20957;-84
2022/09/26 17:26:54;;;;;;;17.23;6.12;;;;;;;14.24;100.00;97689.20;2122182;82;20973;-90
2022/09/26 17:29:56;;;;;;;8.53;5.35;;;;;;;14.22;100.00;97696.53;2135800;82;21035;-87
2022/09/26 17:32:57;;;;;;;6.25;4.50;;;;;;;14.17;100.00;97696.92;2161704;81;21575;-86
2022/09/26 17:35:58;;;;;;;7.08;5.22;;;;;;;14.09;100.00;97688.86;2199313;80;21529;-86
2022/09/26 17:39:01;;;;;;;4.78;4.37;;;;;;;14.01;100.00;97682.61;2210458;80;21020;-86
2022/09/26 17:42:02;;;;;;;5.37;4.80;;;;;;;13.98;100.00;97680.41;2210161;80;20989;-88
2022/09/26 17:45:03;;;;;;;11.90;7.53;;;;;;;13.90;100.00;97672.35;2222855;80;20969;-88
2022/09/26 17:48:03;;;;;;;10.48;7.53;;;;;;;13.88;100.00;97674.89;2210582;80;20942;-89
2022/09/26 17:51:04;;;;;;;8.00;5.80;;;;;;;13.85;100.00;97675.36;2204129;80;20988;-87
2022/09/26 17:54:06;;;;;;;8.33;5.72;;;;;;;13.80;100.00;97673.39;2184478;81;20965;-87
2022/09/26 17:57:08;;;;;;;6.90;5.20;;;;;;;13.66;100.00;97675.42;2135861;81;21088;-86
2022/09/26 18:00:09;;;;;;;7.65;5.78;;;;;;;13.56;100.00;97680.42;2157059;81;21069;-86
2022/09/26 18:03:10;;;;;;;6.37;4.92;;;;;;;13.55;100.00;97681.45;2154473;81;21049;-88
2022/09/26 18:06:11;;;;;;;7.15;5.85;;;;;;;13.60;100.00;97679.45;2210275;80;20941;-86
2022/09/26 18:09:15;;;;;;;5.50;4.72;;;;;;;13.64;100.00;97672.22;2191427;80;21043;-88
2022/09/26 18:12:14;;;;;;;8.15;5.20;;;;;;;13.62;100.00;97670.81;2152435;83;20993;-86
2022/09/26 18:15:15;;;;;;;6.78;5.95;;;;;;;13.58;100.00;97665.73;2151879;82;21603;-86
2022/09/26 18:18:16;;;;;;;6.10;5.22;;;;;;;13.51;100.00;97663.70;2150853;82;21008;-86
2022/09/26 18:21:17;;;;;;;5.65;4.97;;;;;;;13.42;100.00;97665.83;2150887;83;21020;-85
2022/09/26 18:24:18;;;;;;;6.22;5.12;;;;;;;13.29;100.00;97656.30;2152506;82;21076;-87
2022/09/26 18:27:19;;;;;;;7.03;5.83;;;;;;;13.17;100.00;97660.69;2151754;82;21032;-86
2022/09/26 18:30:20;;;;;;;6.28;5.65;;;;;;;13.05;100.00;97669.80;2152196;82;21024;-85
2022/09/26 18:33:21;;;;;;;8.90;5.53;;;;;;;12.89;100.00;97663.81;2153892;82;21055;-85
2022/09/26 18:36:22;;;;;;;6.10;5.45;;;;;;;12.79;100.00;97668.27;2151281;82;21543;-86
2022/09/26 18:39:23;;;;;;;7.10;5.78;;;;;;;12.71;100.00;97663.81;2146881;82;21119;-87
2022/09/26 18:42:26;;;;;;;11.18;6.37;;;;;;;12.64;100.00;97664.42;2150679;82;21076;-85
2022/09/26 18:45:27;;;;;;;6.60;5.85;;;;;;;12.59;100.00;97666.38;2191598;80;21105;-85
2022/09/26 18:48:30;;;;;;;7.85;5.90;;;;;;;12.55;100.00;97670.97;2175249;81;21504;-87
2022/09/26 18:51:30;;;;;;;7.10;6.50;;;;;;;12.50;100.00;97671.09;2192460;80;21111;-86
2022/09/26 18:54:31;;;;;;;5.97;5.47;;;;;;;12.40;100.00;97662.12;2193215;80;21047;-86
2022/09/26 19:00:53;;;;;;;7.80;6.67;;;;;;;12.33;100.00;97658.23;2192716;80;21076;-86
2022/09/26 19:03:53;;;;;;;6.92;6.33;;;;;;;12.29;100.00;97662.83;2190748;80;21144;-85
2022/09/26 19:06:54;;;;;;;9.28;8.35;;;;;;;12.18;100.00;97658.58;2191849;80;21120;-86
2022/09/26 19:09:55;;;;;;;13.40;9.58;;;;;;;12.06;100.00;97651.61;2188470;80;20997;-87
2022/09/26 19:12:57;;;;;;;11.70;10.38;;;;;;;11.96;100.00;97654.71;2191086;80;21027;-85
2022/09/26 19:15:58;;;;;;;17.37;10.23;;;;;;;11.87;100.00;97657.30;2189304;80;21062;-86
2022/09/26 19:18:59;;;;;;;14.75;10.23;;;;;;;11.80;100.00;97666.55;2191483;80;21538;-87
2022/09/26 19:22:00;;;;;;;13.38;11.63;;;;;;;11.75;100.00;97661.09;2190268;80;21534;-86
2022/09/26 19:25:01;;;;;;;16.60;12.82;;;;;;;11.71;100.00;97663.05;2191090;81;21093;-87
2022/09/26 19:28:02;;;;;;;15.80;12.43;;;;;;;11.67;100.00;97665.28;2190519;80;21420;-87
2022/09/26 19:31:03;;;;;;;16.40;13.55;;;;;;;11.61;100.00;97661.70;2190960;80;21027;-87
2022/09/26 19:34:04;;;;;;;22.25;15.98;;;;;;;11.58;100.00;97667.34;2190974;81;20973;-87
2022/09/26 19:37:04;;;;;;;23.65;15.40;;;;;;;11.56;100.00;97658.89;2191291;80;20992;-87
2022/09/26 19:40:05;;;;;;;30.30;20.72;;;;;;;11.54;100.00;97659.63;2187497;80;21536;-88
2022/09/26 19:43:06;;;;;;;24.72;20.37;;;;;;;11.54;100.00;97661.44;2191970;80;21120;-88
2022/09/26 19:46:07;;;;;;;33.92;25.50;;;;;;;11.52;100.00;97660.83;2188547;80;21041;-85
2022/09/26 19:49:08;;;;;;;37.67;28.67;;;;;;;11.52;100.00;97659.52;2193026;80;21040;-85
2022/09/26 19:52:09;;;;;;;35.95;27.52;;;;;;;11.51;100.00;97665.77;2192552;81;20965;-84
2022/09/26 19:55:10;;;;;;;38.98;27.25;;;;;;;11.51;100.00;97663.16;2192053;80;22169;-85
2022/09/26 19:58:11;;;;;;;33.15;24.85;;;;;;;11.51;100.00;97665.27;2193785;80;21031;-87
2022/09/26 20:01:12;;;;;;;28.42;23.07;;;;;;;11.52;100.00;97662.97;2190668;80;20996;-87
2022/09/26 20:04:13;;;;;;;29.23;23.00;;;;;;;11.53;100.00;97663.27;2192374;80;21626;-87
2022/09/26 20:07:14;;;;;;;27.70;20.17;;;;;;;11.53;100.00;97663.27;2190617;81;20946;-87
2022/09/26 20:10:14;;;;;;;24.60;19.65;;;;;;;11.53;100.00;97667.70;2190256;80;21024;-87
2022/09/26 20:13:15;;;;;;;23.87;17.98;;;;;;;11.47;100.00;97669.33;2191942;80;21039;-87
2022/09/26 20:16:16;;;;;;;20.68;17.20;;;;;;;11.49;100.00;97663.88;2191717;80;20989;-84
2022/09/26 20:19:17;;;;;;;16.93;13.85;;;;;;;11.48;100.00;97670.14;2193585;80;21023;-85
2022/09/26 20:22:17;;;;;;;13.45;12.15;;;;;;;11.45;100.00;97666.64;2182385;80;20953;-85
2022/09/26 20:25:19;;;;;;;15.63;13.25;;;;;;;11.47;100.00;97670.64;2190228;80;21069;-86
2022/09/26 20:28:20;;;;;;;14.28;12.33;;;;;;;11.46;100.00;97672.17;2191940;80;21057;-86
2022/09/26 20:31:21;;;;;;;12.45;10.80;;;;;;;11.43;100.00;97669.47;2191806;80;21511;-85
2022/09/26 20:34:22;;;;;;;13.00;10.03;;;;;;;11.42;100.00;97663.11;2186359;80;21069;-86
2022/09/26 20:37:23;;;;;;;13.45;11.05;;;;;;;11.40;100.00;97660.19;2191494;80;21036;-85
2022/09/26 20:40:23;;;;;;;14.55;11.10;;;;;;;11.42;100.00;97659.17;2189935;80;21033;-85
2022/09/26 20:43:24;;;;;;;11.95;9.48;;;;;;;11.41;100.00;97660.99;2190359;80;20974;-85
2022/09/26 20:46:25;;;;;;;10.50;9.43;;;;;;;11.38;100.00;97661.42;2190513;80;21651;-85
2022/09/26 20:49:26;;;;;;;10.28;9.33;;;;;;;11.32;100.00;97661.74;2190955;80;20976;-86
2022/09/26 20:52:26;;;;;;;9.60;8.55;;;;;;;11.30;100.00;97668.21;2191353;80;21041;-85
2022/09/26 20:55:31;;;;;;;12.07;10.88;;;;;;;11.25;100.00;97663.61;2170270;80;21044;-84
2022/09/26 20:58:30;;;;;;;13.45;12.13;;;;;;;11.22;100.00;97665.83;2189298;80;21063;-83
2022/09/26 21:01:30;;;;;;;13.55;12.25;;;;;;;11.20;100.00;97658.18;2190106;80;21080;-81
2022/09/26 21:04:31;;;;;;;12.45;10.98;;;;;;;11.14;100.00;97652.45;2194636;80;20980;-82
2022/09/26 21:07:32;;;;;;;11.70;10.50;;;;;;;11.08;100.00;97650.18;2195590;80;21008;-82
2022/09/26 21:10:33;;;;;;;11.03;9.90;;;;;;;11.01;100.00;97648.59;2192761;80;21132;-84
2022/09/26 21:13:33;;;;;;;11.38;9.10;;;;;;;10.90;100.00;97655.29;2192981;80;21491;-84
2022/09/26 21:16:34;;;;;;;11.08;9.88;;;;;;;10.81;100.00;97656.02;2192711;81;21675;-83
2022/09/26 21:19:35;;;;;;;11.43;10.18;;;;;;;10.69;100.00;97652.41;2194724;80;21048;-83
2022/09/26 21:22:37;;;;;;;10.05;9.05;;;;;;;10.57;100.00;97656.68;2190588;80;21021;-85
2022/09/26 21:25:38;;;;;;;9.55;8.50;;;;;;;10.51;100.00;97658.80;2186349;80;20997;-86
2022/09/26 21:28:39;;;;;;;9.98;9.08;;;;;;;10.45;100.00;97657.02;2192178;80;21070;-86
2022/09/26 21:31:40;;;;;;;9.93;8.93;;;;;;;10.35;100.00;97649.59;2190838;80;20962;-87
2022/09/26 21:34:40;;;;;;;13.00;11.40;;;;;;;10.25;100.00;97655.73;2192078;80;21485;-87
2022/09/26 21:37:41;;;;;;;12.05;10.00;;;;;;;10.20;100.00;97648.45;2189738;80;21012;-86
2022/09/26 21:40:42;;;;;;;16.93;12.25;;;;;;;10.13;100.00;97647.64;2191758;80;21088;-86
2022/09/26 21:43:43;;;;;;;12.90;10.55;;;;;;;10.10;100.00;97639.41;2193199;80;21101;-83
2022/09/26 21:46:44;;;;;;;16.70;13.00;;;;;;;10.07;100.00;97638.02;2191352;80;21522;-87
2022/09/26 21:49:45;;;;;;;13.38;11.08;;;;;;;10.02;100.00;97638.30;2190972;80;21001;-85
2022/09/26 21:52:45;;;;;;;13.50;11.50;;;;;;;9.96;100.00;97634.67;2191797;80;21036;-84
2022/09/26 21:55:46;;;;;;;14.47;12.18;;;;;;;9.96;100.00;97632.05;2192150;80;21037;-86
2022/09/26 21:58:47;;;;;;;13.53;11.60;;;;;;;9.92;100.00;97626.94;2193251;80;21031;-85
2022/09/26 22:01:48;;;;;;;15.63;11.33;;;;;;;9.90;100.00;97619.30;2189690;80;21504;-86
2022/09/26 22:04:48;;;;;;;14.93;11.95;;;;;;;9.87;100.00;97624.11;2190940;80;21142;-85
2022/09/26 22:07:49;;;;;;;15.45;11.43;;;;;;;9.84;100.00;97627.14;2192665;80;21056;-86
2022/09/26 22:10:50;;;;;;;14.30;12.58;;;;;;;9.84;100.00;97630.55;2192700;80;21484;-85
2022/09/26 22:13:51;;;;;;;15.43;11.90;;;;;;;9.78;100.00;97618.78;2191833;80;21087;-83
2022/09/26 22:16:52;;;;;;;15.93;12.82;;;;;;;9.73;100.00;97621.20;2192869;80;20981;-82
2022/09/26 22:19:53;;;;;;;16.60;13.65;;;;;;;9.70;100.00;97623.73;2194361;80;21005;-83
2022/09/26 22:22:54;;;;;;;14.40;12.07;;;;;;;9.69;100.00;97610.33;2189905;80;21009;-84
2022/09/26 22:25:55;;;;;;;15.58;13.28;;;;;;;9.67;100.00;97606.61;2192041;80;21081;-85
2022/09/26 22:28:56;;;;;;;16.52;11.70;;;;;;;9.62;100.00;97605.13;2192805;80;21531;-86
2022/09/26 22:31:56;;;;;;;15.63;13.05;;;;;;;9.58;100.00;97600.48;2190513;80;21068;-86
2022/09/26 22:34:57;;;;;;;15.50;13.80;;;;;;;9.57;100.00;97595.75;2191945;80;21027;-85
2022/09/26 22:37:58;;;;;;;16.10;13.53;;;;;;;9.54;100.00;97587.02;2191759;80;20993;-86
2022/09/26 22:41:00;;;;;;;14.40;12.58;;;;;;;9.47;100.00;97579.67;2186889;80;21607;-85
2022/09/26 22:44:04;;;;;;;16.60;13.68;;;;;;;9.39;100.00;97572.83;2189814;80;21025;-85
2022/09/26 22:47:05;;;;;;;15.05;12.80;;;;;;;9.33;100.00;97566.30;2191285;80;21062;-85
2022/09/26 22:50:05;;;;;;;14.65;12.60;;;;;;;9.27;100.00;97564.48;2193446;80;21507;-84
2022/09/26 22:53:06;;;;;;;16.15;13.08;;;;;;;9.24;100.00;97563.58;2191413;80;21024;-85
2022/09/26 22:56:07;;;;;;;17.30;13.15;;;;;;;9.22;100.00;97560.34;2193640;80;21015;-85
2022/09/26 22:59:08;;;;;;;15.80;13.10;;;;;;;9.19;100.00;97557.62;2188020;81;21449;-83
2022/09/26 23:02:09;;;;;;;17.23;14.25;;;;;;;9.15;100.00;97556.94;2190408;80;21016;-85
2022/09/26 23:05:09;;;;;;;16.70;13.85;;;;;;;9.12;100.00;97555.50;2191097;80;20997;-85
2022/09/26 23:08:10;;;;;;;16.07;13.10;;;;;;;9.12;100.00;97550.28;2192816;80;21024;-85
2022/09/26 23:11:11;;;;;;;17.32;13.83;;;;;;;9.11;100.00;97551.28;2187584;80;21051;-85
2022/09/26 23:14:12;;;;;;;17.60;14.90;;;;;;;9.09;100.00;97542.85;2187371;81;20947;-87
2022/09/26 23:17:12;;;;;;;19.48;14.45;;;;;;;9.04;100.00;97538.20;2190619;80;21547;-86
2022/09/26 23:20:13;;;;;;;15.95;14.00;;;;;;;8.99;100.00;97533.30;2190202;80;20982;-85
2022/09/26 23:23:14;;;;;;;20.57;14.43;;;;;;;8.90;100.00;97538.39;2192334;80;21452;-87
2022/09/26 23:26:15;;;;;;;14.13;12.37;;;;;;;8.83;100.00;97535.25;2186091;80;21060;-85
2022/09/26 23:29:15;;;;;;;15.63;12.40;;;;;;;8.75;100.00;97534.13;2182754;80;21102;-84
2022/09/26 23:32:16;;;;;;;12.88;11.50;;;;;;;8.67;100.00;97536.91;2193318;80;21121;-86
2022/09/26 23:35:17;;;;;;;14.75;12.03;;;;;;;8.61;100.00;97532.98;2188358;80;21520;-86
2022/09/26 23:38:18;;;;;;;15.35;11.12;;;;;;;8.56;100.00;97532.25;2189538;80;20963;-85
2022/09/26 23:41:19;;;;;;;12.58;11.28;;;;;;;8.51;100.00;97528.94;2190344;80;21528;-84